Terminal Aerodrome Forecast
Issued by NWS

Home | Current Version | Previous Version | Text Only | Print | Product List | Glossary On
Versions: 1 2 3 4 5 6 7 8 9 10 11 12 13 14 15 16 17
536
FTUS43 KDTX 102337
TAFMBS
TAF
KMBS 102337Z 1100/1124 23006KT P6SM SCT035 OVC150
     FM110800 17005KT 3SM -SN BKN025 OVC040
     FM111300 15008KT 2SM -SN OVC015
     FM111700 16010KT 3/4SM -SN OVC010=

USA.gov is the U.S. government's official web portal to all federal, state and local government web resources and services.